sensor_id;sensor_type;location;lat;lon;timestamp;P1;durP1;ratioP1;P2;durP2;ratioP2
16101;SDS011;56411;52.964;10.540;2023-08-08T00:01:37;7.80;;;2.90;;
16101;SDS011;56411;52.964;10.540;2023-08-08T00:04:08;7.60;;;2.65;;
16101;SDS011;56411;52.964;10.540;2023-08-08T00:06:35;7.95;;;2.72;;
16101;SDS011;56411;52.964;10.540;2023-08-08T00:09:03;7.93;;;2.92;;
16101;SDS011;56411;52.964;10.540;2023-08-08T00:11:31;8.38;;;2.75;;
16101;SDS011;56411;52.964;10.540;2023-08-08T00:13:58;5.87;;;2.70;;
16101;SDS011;56411;52.964;10.540;2023-08-08T00:16:26;8.02;;;2.75;;
16101;SDS011;56411;52.964;10.540;2023-08-08T00:18:53;7.82;;;2.75;;
16101;SDS011;56411;52.964;10.540;2023-08-08T00:21:20;8.43;;;3.03;;
16101;SDS011;56411;52.964;10.540;2023-08-08T00:23:47;6.50;;;2.83;;
16101;SDS011;56411;52.964;10.540;2023-08-08T00:26:16;8.47;;;2.93;;
16101;SDS011;56411;52.964;10.540;2023-08-08T00:28:43;9.93;;;3.08;;
16101;SDS011;56411;52.964;10.540;2023-08-08T00:31:10;9.52;;;3.03;;
16101;SDS011;56411;52.964;10.540;2023-08-08T00:33:37;6.72;;;2.60;;
16101;SDS011;56411;52.964;10.540;2023-08-08T00:36:05;8.67;;;2.77;;
16101;SDS011;56411;52.964;10.540;2023-08-08T00:38:32;9.38;;;3.00;;
16101;SDS011;56411;52.964;10.540;2023-08-08T00:40:59;8.87;;;3.10;;
16101;SDS011;56411;52.964;10.540;2023-08-08T00:43:28;7.38;;;3.03;;
16101;SDS011;56411;52.964;10.540;2023-08-08T00:45:55;8.37;;;2.90;;
16101;SDS011;56411;52.964;10.540;2023-08-08T00:48:23;9.77;;;2.95;;
16101;SDS011;56411;52.964;10.540;2023-08-08T00:50:51;8.10;;;3.10;;
16101;SDS011;56411;52.964;10.540;2023-08-08T00:53:18;8.80;;;3.10;;
16101;SDS011;56411;52.964;10.540;2023-08-08T00:55:47;7.87;;;3.03;;
16101;SDS011;56411;52.964;10.540;2023-08-08T00:58:15;8.93;;;2.90;;
16101;SDS011;56411;52.964;10.540;2023-08-08T01:00:44;7.63;;;3.07;;
16101;SDS011;56411;52.964;10.540;2023-08-08T01:03:11;10.52;;;3.63;;
16101;SDS011;56411;52.964;10.540;2023-08-08T01:05:41;8.57;;;3.20;;
16101;SDS011;56411;52.964;10.540;2023-08-08T01:08:15;9.85;;;3.25;;
16101;SDS011;56411;52.964;10.540;2023-08-08T01:10:45;8.45;;;3.00;;
16101;SDS011;56411;52.964;10.540;2023-08-08T01:13:13;5.10;;;2.67;;
16101;SDS011;56411;52.964;10.540;2023-08-08T01:15:45;9.90;;;3.40;;
16101;SDS011;56411;52.964;10.540;2023-08-08T01:18:14;11.27;;;3.35;;
16101;SDS011;56411;52.964;10.540;2023-08-08T01:20:43;8.82;;;3.28;;
16101;SDS011;56411;52.964;10.540;2023-08-08T01:23:12;7.73;;;2.93;;
16101;SDS011;56411;52.964;10.540;2023-08-08T01:25:44;8.80;;;3.47;;
16101;SDS011;56411;52.964;10.540;2023-08-08T01:28:12;7.33;;;3.00;;
16101;SDS011;56411;52.964;10.540;2023-08-08T01:30:39;9.75;;;3.08;;
16101;SDS011;56411;52.964;10.540;2023-08-08T01:33:07;8.23;;;3.33;;
16101;SDS011;56411;52.964;10.540;2023-08-08T01:35:37;10.40;;;3.30;;
16101;SDS011;56411;52.964;10.540;2023-08-08T01:38:09;7.28;;;3.10;;
16101;SDS011;56411;52.964;10.540;2023-08-08T01:40:40;10.10;;;3.37;;
16101;SDS011;56411;52.964;10.540;2023-08-08T01:43:11;11.60;;;3.20;;
16101;SDS011;56411;52.964;10.540;2023-08-08T01:45:40;10.77;;;3.43;;
16101;SDS011;56411;52.964;10.540;2023-08-08T01:48:09;9.93;;;3.47;;
16101;SDS011;56411;52.964;10.540;2023-08-08T01:50:37;8.52;;;3.28;;
16101;SDS011;56411;52.964;10.540;2023-08-08T01:53:05;11.68;;;3.20;;
16101;SDS011;56411;52.964;10.540;2023-08-08T01:55:32;10.38;;;3.67;;
16101;SDS011;56411;52.964;10.540;2023-08-08T01:58:01;8.68;;;3.55;;
16101;SDS011;56411;52.964;10.540;2023-08-08T02:00:28;8.40;;;3.60;;
16101;SDS011;56411;52.964;10.540;2023-08-08T02:02:55;10.70;;;3.75;;
16101;SDS011;56411;52.964;10.540;2023-08-08T02:05:23;9.23;;;3.70;;
16101;SDS011;56411;52.964;10.540;2023-08-08T02:07:50;10.32;;;3.55;;
16101;SDS011;56411;52.964;10.540;2023-08-08T02:10:17;11.27;;;3.50;;
16101;SDS011;56411;52.964;10.540;2023-08-08T02:12:44;9.07;;;3.13;;
16101;SDS011;56411;52.964;10.540;2023-08-08T02:15:13;9.70;;;3.83;;
16101;SDS011;56411;52.964;10.540;2023-08-08T02:17:40;10.07;;;3.47;;
16101;SDS011;56411;52.964;10.540;2023-08-08T02:20:08;9.27;;;3.50;;
16101;SDS011;56411;52.964;10.540;2023-08-08T02:22:37;9.63;;;3.80;;
16101;SDS011;56411;52.964;10.540;2023-08-08T02:25:04;9.30;;;3.50;;
16101;SDS011;56411;52.964;10.540;2023-08-08T02:27:31;6.70;;;3.03;;
16101;SDS011;56411;52.964;10.540;2023-08-08T02:29:59;8.17;;;3.60;;
16101;SDS011;56411;52.964;10.540;2023-08-08T02:32:28;12.00;;;3.70;;
16101;SDS011;56411;52.964;10.540;2023-08-08T02:34:55;8.90;;;3.60;;
16101;SDS011;56411;52.964;10.540;2023-08-08T02:37:22;9.90;;;3.50;;
16101;SDS011;56411;52.964;10.540;2023-08-08T02:39:50;10.07;;;3.58;;
16101;SDS011;56411;52.964;10.540;2023-08-08T02:42:17;9.32;;;4.10;;
16101;SDS011;56411;52.964;10.540;2023-08-08T02:44:45;8.63;;;3.60;;
16101;SDS011;56411;52.964;10.540;2023-08-08T02:47:12;8.90;;;3.87;;
16101;SDS011;56411;52.964;10.540;2023-08-08T02:49:41;9.70;;;3.50;;
16101;SDS011;56411;52.964;10.540;2023-08-08T02:52:11;11.18;;;3.70;;
16101;SDS011;56411;52.964;10.540;2023-08-08T02:54:39;8.60;;;3.73;;
16101;SDS011;56411;52.964;10.540;2023-08-08T02:57:06;9.63;;;3.70;;
16101;SDS011;56411;52.964;10.540;2023-08-08T02:59:35;9.07;;;3.50;;
16101;SDS011;56411;52.964;10.540;2023-08-08T03:02:05;11.32;;;3.60;;
16101;SDS011;56411;52.964;10.540;2023-08-08T03:04:33;11.05;;;3.50;;
16101;SDS011;56411;52.964;10.540;2023-08-08T03:07:04;10.02;;;3.60;;
16101;SDS011;56411;52.964;10.540;2023-08-08T03:09:34;9.70;;;3.93;;
16101;SDS011;56411;52.964;10.540;2023-08-08T03:12:09;10.95;;;4.20;;
16101;SDS011;56411;52.964;10.540;2023-08-08T03:14:39;9.68;;;3.70;;
16101;SDS011;56411;52.964;10.540;2023-08-08T03:17:09;11.43;;;3.97;;
16101;SDS011;56411;52.964;10.540;2023-08-08T03:19:36;11.02;;;3.72;;
16101;SDS011;56411;52.964;10.540;2023-08-08T03:22:12;11.77;;;4.05;;
16101;SDS011;56411;52.964;10.540;2023-08-08T03:24:39;9.30;;;3.97;;
16101;SDS011;56411;52.964;10.540;2023-08-08T03:27:15;10.30;;;4.07;;
16101;SDS011;56411;52.964;10.540;2023-08-08T03:29:42;9.93;;;4.03;;
16101;SDS011;56411;52.964;10.540;2023-08-08T03:32:10;9.95;;;4.03;;
16101;SDS011;56411;52.964;10.540;2023-08-08T03:34:37;10.13;;;4.27;;
16101;SDS011;56411;52.964;10.540;2023-08-08T03:37:08;9.68;;;3.97;;
16101;SDS011;56411;52.964;10.540;2023-08-08T03:39:35;9.13;;;3.77;;
16101;SDS011;56411;52.964;10.540;2023-08-08T03:42:07;9.30;;;3.83;;
16101;SDS011;56411;52.964;10.540;2023-08-08T03:44:34;10.60;;;4.00;;
16101;SDS011;56411;52.964;10.540;2023-08-08T03:47:01;11.00;;;3.92;;
16101;SDS011;56411;52.964;10.540;2023-08-08T03:49:30;9.90;;;4.00;;
16101;SDS011;56411;52.964;10.540;2023-08-08T03:51:57;10.40;;;3.90;;
16101;SDS011;56411;52.964;10.540;2023-08-08T03:54:27;9.97;;;3.97;;
16101;SDS011;56411;52.964;10.540;2023-08-08T03:56:56;7.72;;;3.78;;
16101;SDS011;56411;52.964;10.540;2023-08-08T03:59:24;10.83;;;4.07;;
16101;SDS011;56411;52.964;10.540;2023-08-08T04:01:54;9.53;;;4.13;;
16101;SDS011;56411;52.964;10.540;2023-08-08T04:04:24;11.25;;;4.10;;
16101;SDS011;56411;52.964;10.540;2023-08-08T04:06:51;8.52;;;3.85;;
16101;SDS011;56411;52.964;10.540;2023-08-08T04:09:18;10.63;;;4.87;;
16101;SDS011;56411;52.964;10.540;2023-08-08T04:11:51;11.45;;;4.38;;
16101;SDS011;56411;52.964;10.540;2023-08-08T04:14:18;11.37;;;5.00;;
16101;SDS011;56411;52.964;10.540;2023-08-08T04:16:45;8.45;;;4.00;;
16101;SDS011;56411;52.964;10.540;2023-08-08T04:19:12;9.02;;;3.97;;
16101;SDS011;56411;52.964;10.540;2023-08-08T04:21:40;9.40;;;4.47;;
16101;SDS011;56411;52.964;10.540;2023-08-08T04:34:16;9.53;;;4.13;;
16101;SDS011;56411;52.964;10.540;2023-08-08T04:36:50;15.40;;;4.47;;
16101;SDS011;56411;52.964;10.540;2023-08-08T04:40:02;9.68;;;4.35;;
16101;SDS011;56411;52.964;10.540;2023-08-08T04:46:15;9.82;;;4.10;;
16101;SDS011;56411;52.964;10.540;2023-08-08T04:49:12;11.07;;;4.70;;
16101;SDS011;56411;52.964;10.540;2023-08-08T04:52:03;11.13;;;4.43;;
16101;SDS011;56411;52.964;10.540;2023-08-08T04:54:42;10.77;;;4.35;;
16101;SDS011;56411;52.964;10.540;2023-08-08T04:57:27;9.55;;;4.45;;
16101;SDS011;56411;52.964;10.540;2023-08-08T05:03:20;9.75;;;4.45;;
16101;SDS011;56411;52.964;10.540;2023-08-08T05:06:15;9.98;;;4.10;;
16101;SDS011;56411;52.964;10.540;2023-08-08T05:08:52;11.35;;;4.60;;
16101;SDS011;56411;52.964;10.540;2023-08-08T05:11:24;9.30;;;4.22;;
16101;SDS011;56411;52.964;10.540;2023-08-08T05:13:55;11.35;;;4.68;;
16101;SDS011;56411;52.964;10.540;2023-08-08T05:16:35;10.73;;;4.53;;
16101;SDS011;56411;52.964;10.540;2023-08-08T05:19:08;8.52;;;4.25;;
16101;SDS011;56411;52.964;10.540;2023-08-08T05:21:41;9.65;;;4.35;;
16101;SDS011;56411;52.964;10.540;2023-08-08T05:24:20;10.18;;;4.38;;
16101;SDS011;56411;52.964;10.540;2023-08-08T05:27:16;11.15;;;4.85;;
16101;SDS011;56411;52.964;10.540;2023-08-08T05:30:03;14.18;;;4.95;;
16101;SDS011;56411;52.964;10.540;2023-08-08T05:32:48;10.82;;;5.35;;
16101;SDS011;56411;52.964;10.540;2023-08-08T05:35:15;12.23;;;4.85;;
16101;SDS011;56411;52.964;10.540;2023-08-08T05:37:43;11.65;;;5.00;;
16101;SDS011;56411;52.964;10.540;2023-08-08T05:40:26;12.27;;;5.40;;
16101;SDS011;56411;52.964;10.540;2023-08-08T05:42:55;10.75;;;4.97;;
16101;SDS011;56411;52.964;10.540;2023-08-08T05:45:26;10.15;;;4.68;;
16101;SDS011;56411;52.964;10.540;2023-08-08T05:47:55;11.05;;;5.05;;
16101;SDS011;56411;52.964;10.540;2023-08-08T05:50:22;10.57;;;4.68;;
16101;SDS011;56411;52.964;10.540;2023-08-08T05:52:49;11.77;;;5.10;;
16101;SDS011;56411;52.964;10.540;2023-08-08T05:55:16;12.45;;;4.65;;
16101;SDS011;56411;52.964;10.540;2023-08-08T05:57:43;11.35;;;4.90;;
16101;SDS011;56411;52.964;10.540;2023-08-08T06:00:11;10.20;;;4.80;;
16101;SDS011;56411;52.964;10.540;2023-08-08T06:02:39;10.02;;;4.85;;
16101;SDS011;56411;52.964;10.540;2023-08-08T06:05:08;12.02;;;4.68;;
16101;SDS011;56411;52.964;10.540;2023-08-08T06:07:37;12.13;;;4.55;;
16101;SDS011;56411;52.964;10.540;2023-08-08T06:10:04;12.80;;;5.00;;
16101;SDS011;56411;52.964;10.540;2023-08-08T06:12:33;11.35;;;4.40;;
16101;SDS011;56411;52.964;10.540;2023-08-08T06:15:00;9.75;;;4.40;;
16101;SDS011;56411;52.964;10.540;2023-08-08T06:17:29;11.93;;;4.93;;
16101;SDS011;56411;52.964;10.540;2023-08-08T06:19:57;10.70;;;4.55;;
16101;SDS011;56411;52.964;10.540;2023-08-08T06:22:26;12.73;;;4.63;;
16101;SDS011;56411;52.964;10.540;2023-08-08T06:24:53;11.40;;;4.15;;
16101;SDS011;56411;52.964;10.540;2023-08-08T06:27:20;11.27;;;4.43;;
16101;SDS011;56411;52.964;10.540;2023-08-08T06:29:47;11.60;;;4.60;;
16101;SDS011;56411;52.964;10.540;2023-08-08T06:32:14;9.30;;;4.25;;
16101;SDS011;56411;52.964;10.540;2023-08-08T06:34:42;10.02;;;4.15;;
16101;SDS011;56411;52.964;10.540;2023-08-08T06:37:09;9.48;;;4.03;;
16101;SDS011;56411;52.964;10.540;2023-08-08T06:39:38;8.75;;;3.63;;
16101;SDS011;56411;52.964;10.540;2023-08-08T06:42:07;10.40;;;4.40;;
16101;SDS011;56411;52.964;10.540;2023-08-08T06:44:40;11.13;;;4.00;;
16101;SDS011;56411;52.964;10.540;2023-08-08T06:47:08;11.55;;;3.92;;
16101;SDS011;56411;52.964;10.540;2023-08-08T06:49:35;10.00;;;3.75;;
16101;SDS011;56411;52.964;10.540;2023-08-08T06:52:03;12.48;;;3.90;;
16101;SDS011;56411;52.964;10.540;2023-08-08T06:54:30;9.27;;;3.70;;
16101;SDS011;56411;52.964;10.540;2023-08-08T06:57:00;8.27;;;3.60;;
16101;SDS011;56411;52.964;10.540;2023-08-08T06:59:27;8.93;;;3.60;;
16101;SDS011;56411;52.964;10.540;2023-08-08T07:01:54;10.18;;;3.97;;
16101;SDS011;56411;52.964;10.540;2023-08-08T07:04:22;11.25;;;3.72;;
16101;SDS011;56411;52.964;10.540;2023-08-08T07:06:50;8.98;;;3.50;;
16101;SDS011;56411;52.964;10.540;2023-08-08T07:09:17;8.82;;;3.30;;
16101;SDS011;56411;52.964;10.540;2023-08-08T07:11:44;8.70;;;3.42;;
16101;SDS011;56411;52.964;10.540;2023-08-08T07:14:13;8.32;;;3.13;;
16101;SDS011;56411;52.964;10.540;2023-08-08T07:16:40;9.55;;;3.30;;
16101;SDS011;56411;52.964;10.540;2023-08-08T07:19:07;8.18;;;3.22;;
16101;SDS011;56411;52.964;10.540;2023-08-08T07:21:34;9.13;;;3.35;;
16101;SDS011;56411;52.964;10.540;2023-08-08T07:24:02;9.57;;;3.63;;
16101;SDS011;56411;52.964;10.540;2023-08-08T07:26:29;7.72;;;3.10;;
16101;SDS011;56411;52.964;10.540;2023-08-08T07:28:56;8.00;;;3.00;;
16101;SDS011;56411;52.964;10.540;2023-08-08T07:31:26;8.35;;;3.03;;
16101;SDS011;56411;52.964;10.540;2023-08-08T07:33:53;7.00;;;3.20;;
16101;SDS011;56411;52.964;10.540;2023-08-08T07:36:20;9.30;;;3.20;;
16101;SDS011;56411;52.964;10.540;2023-08-08T07:38:48;5.53;;;2.45;;
16101;SDS011;56411;52.964;10.540;2023-08-08T07:41:15;6.95;;;2.65;;
16101;SDS011;56411;52.964;10.540;2023-08-08T07:43:43;5.95;;;2.70;;
16101;SDS011;56411;52.964;10.540;2023-08-08T07:46:10;8.63;;;2.80;;
16101;SDS011;56411;52.964;10.540;2023-08-08T07:48:40;8.77;;;2.55;;
16101;SDS011;56411;52.964;10.540;2023-08-08T07:51:07;8.48;;;2.72;;
16101;SDS011;56411;52.964;10.540;2023-08-08T07:53:35;6.82;;;2.80;;
16101;SDS011;56411;52.964;10.540;2023-08-08T07:56:02;7.35;;;2.83;;
16101;SDS011;56411;52.964;10.540;2023-08-08T07:58:31;7.22;;;2.50;;
16101;SDS011;56411;52.964;10.540;2023-08-08T08:00:59;7.30;;;2.60;;
16101;SDS011;56411;52.964;10.540;2023-08-08T08:03:26;7.57;;;2.60;;
16101;SDS011;56411;52.964;10.540;2023-08-08T08:05:55;9.85;;;2.60;;
16101;SDS011;56411;52.964;10.540;2023-08-08T08:08:23;6.82;;;2.65;;
16101;SDS011;56411;52.964;10.540;2023-08-08T08:10:50;8.02;;;2.65;;
16101;SDS011;56411;52.964;10.540;2023-08-08T08:13:21;5.63;;;2.70;;
16101;SDS011;56411;52.964;10.540;2023-08-08T08:16:02;7.95;;;2.70;;
16101;SDS011;56411;52.964;10.540;2023-08-08T08:18:30;5.50;;;2.33;;
16101;SDS011;56411;52.964;10.540;2023-08-08T08:21:15;7.32;;;2.50;;
16101;SDS011;56411;52.964;10.540;2023-08-08T08:23:55;8.45;;;2.58;;
16101;SDS011;56411;52.964;10.540;2023-08-08T08:26:23;8.20;;;2.50;;
16101;SDS011;56411;52.964;10.540;2023-08-08T08:28:59;7.68;;;2.65;;
16101;SDS011;56411;52.964;10.540;2023-08-08T08:31:27;6.50;;;2.83;;
16101;SDS011;56411;52.964;10.540;2023-08-08T08:33:55;8.00;;;2.75;;
16101;SDS011;56411;52.964;10.540;2023-08-08T08:39:15;4.90;;;2.40;;
16101;SDS011;56411;52.964;10.540;2023-08-08T08:42:20;6.68;;;2.40;;
16101;SDS011;56411;52.964;10.540;2023-08-08T08:44:58;4.60;;;2.30;;
16101;SDS011;56411;52.964;10.540;2023-08-08T08:47:53;6.43;;;2.47;;
16101;SDS011;56411;52.964;10.540;2023-08-08T08:50:24;6.25;;;2.60;;
16101;SDS011;56411;52.964;10.540;2023-08-08T08:52:56;7.57;;;2.42;;
16101;SDS011;56411;52.964;10.540;2023-08-08T08:55:25;6.07;;;2.38;;
16101;SDS011;56411;52.964;10.540;2023-08-08T08:57:54;7.75;;;2.53;;
16101;SDS011;56411;52.964;10.540;2023-08-08T09:00:22;8.00;;;2.20;;
16101;SDS011;56411;52.964;10.540;2023-08-08T09:02:51;7.05;;;2.30;;
16101;SDS011;56411;52.964;10.540;2023-08-08T09:05:22;6.40;;;2.40;;
16101;SDS011;56411;52.964;10.540;2023-08-08T09:08:05;8.20;;;2.80;;
16101;SDS011;56411;52.964;10.540;2023-08-08T09:10:49;8.00;;;2.60;;
16101;SDS011;56411;52.964;10.540;2023-08-08T09:14:26;8.20;;;2.72;;
16101;SDS011;56411;52.964;10.540;2023-08-08T09:16:46;7.05;;;2.30;;
16101;SDS011;56411;52.964;10.540;2023-08-08T09:19:44;6.93;;;2.15;;
16101;SDS011;56411;52.964;10.540;2023-08-08T09:22:29;6.97;;;2.40;;
16101;SDS011;56411;52.964;10.540;2023-08-08T09:25:00;6.47;;;2.35;;
16101;SDS011;56411;52.964;10.540;2023-08-08T09:27:38;7.72;;;2.25;;
16101;SDS011;56411;52.964;10.540;2023-08-08T09:30:07;7.18;;;2.50;;
16101;SDS011;56411;52.964;10.540;2023-08-08T09:32:36;7.90;;;2.45;;
16101;SDS011;56411;52.964;10.540;2023-08-08T09:35:05;4.13;;;2.10;;
16101;SDS011;56411;52.964;10.540;2023-08-08T09:37:37;4.72;;;2.20;;
16101;SDS011;56411;52.964;10.540;2023-08-08T09:40:07;11.40;;;2.70;;
16101;SDS011;56411;52.964;10.540;2023-08-08T09:42:36;6.65;;;2.35;;
16101;SDS011;56411;52.964;10.540;2023-08-08T09:45:35;3.30;;;2.20;;
16101;SDS011;56411;52.964;10.540;2023-08-08T09:48:08;5.00;;;2.40;;
16101;SDS011;56411;52.964;10.540;2023-08-08T09:50:38;6.30;;;2.40;;
16101;SDS011;56411;52.964;10.540;2023-08-08T09:53:07;7.38;;;2.67;;
16101;SDS011;56411;52.964;10.540;2023-08-08T09:55:40;7.72;;;2.63;;
16101;SDS011;56411;52.964;10.540;2023-08-08T09:58:08;8.32;;;2.50;;
16101;SDS011;56411;52.964;10.540;2023-08-08T10:00:36;6.15;;;2.25;;
16101;SDS011;56411;52.964;10.540;2023-08-08T10:03:04;5.13;;;2.58;;
16101;SDS011;56411;52.964;10.540;2023-08-08T10:05:32;7.05;;;2.40;;
16101;SDS011;56411;52.964;10.540;2023-08-08T10:07:59;6.97;;;2.50;;
16101;SDS011;56411;52.964;10.540;2023-08-08T10:10:26;4.63;;;2.40;;
16101;SDS011;56411;52.964;10.540;2023-08-08T10:12:56;6.45;;;2.40;;
16101;SDS011;56411;52.964;10.540;2023-08-08T10:15:25;5.82;;;2.42;;
16101;SDS011;56411;52.964;10.540;2023-08-08T10:17:53;5.70;;;2.30;;
16101;SDS011;56411;52.964;10.540;2023-08-08T10:20:23;7.45;;;2.45;;
16101;SDS011;56411;52.964;10.540;2023-08-08T10:22:51;10.05;;;2.20;;
16101;SDS011;56411;52.964;10.540;2023-08-08T10:25:22;6.70;;;2.53;;
16101;SDS011;56411;52.964;10.540;2023-08-08T10:28:01;6.60;;;2.30;;
16101;SDS011;56411;52.964;10.540;2023-08-08T10:30:41;8.52;;;2.50;;
16101;SDS011;56411;52.964;10.540;2023-08-08T10:33:15;7.28;;;2.47;;
16101;SDS011;56411;52.964;10.540;2023-08-08T10:35:50;8.80;;;2.65;;
16101;SDS011;56411;52.964;10.540;2023-08-08T10:38:27;6.72;;;2.60;;
16101;SDS011;56411;52.964;10.540;2023-08-08T10:41:08;8.80;;;2.95;;
16101;SDS011;56411;52.964;10.540;2023-08-08T10:43:38;6.47;;;2.67;;
16101;SDS011;56411;52.964;10.540;2023-08-08T10:46:12;7.10;;;2.67;;
16101;SDS011;56411;52.964;10.540;2023-08-08T10:48:49;7.78;;;2.50;;
16101;SDS011;56411;52.964;10.540;2023-08-08T10:51:21;6.82;;;2.22;;
16101;SDS011;56411;52.964;10.540;2023-08-08T10:53:50;4.25;;;2.30;;
16101;SDS011;56411;52.964;10.540;2023-08-08T10:56:18;5.05;;;2.10;;
16101;SDS011;56411;52.964;10.540;2023-08-08T10:58:48;5.80;;;2.05;;
16101;SDS011;56411;52.964;10.540;2023-08-08T11:01:15;5.10;;;2.30;;
16101;SDS011;56411;52.964;10.540;2023-08-08T11:03:43;5.88;;;2.20;;
16101;SDS011;56411;52.964;10.540;2023-08-08T11:06:11;5.45;;;2.20;;
16101;SDS011;56411;52.964;10.540;2023-08-08T11:08:38;5.43;;;2.20;;
16101;SDS011;56411;52.964;10.540;2023-08-08T11:11:08;6.85;;;2.25;;
16101;SDS011;56411;52.964;10.540;2023-08-08T11:13:35;4.63;;;2.28;;
16101;SDS011;56411;52.964;10.540;2023-08-08T11:16:08;7.15;;;2.38;;
16101;SDS011;56411;52.964;10.540;2023-08-08T11:18:35;4.72;;;2.00;;
16101;SDS011;56411;52.964;10.540;2023-08-08T11:21:09;2.55;;;1.25;;
16101;SDS011;56411;52.964;10.540;2023-08-08T11:23:38;4.38;;;1.50;;
16101;SDS011;56411;52.964;10.540;2023-08-08T11:26:06;3.40;;;1.40;;
16101;SDS011;56411;52.964;10.540;2023-08-08T11:28:33;3.50;;;1.63;;
16101;SDS011;56411;52.964;10.540;2023-08-08T11:31:00;3.08;;;1.30;;
16101;SDS011;56411;52.964;10.540;2023-08-08T11:33:30;3.88;;;1.40;;
16101;SDS011;56411;52.964;10.540;2023-08-08T11:35:58;3.92;;;1.42;;
16101;SDS011;56411;52.964;10.540;2023-08-08T11:38:25;3.67;;;1.73;;
16101;SDS011;56411;52.964;10.540;2023-08-08T11:40:53;2.17;;;1.35;;
16101;SDS011;56411;52.964;10.540;2023-08-08T11:43:20;4.65;;;2.25;;
16101;SDS011;56411;52.964;10.540;2023-08-08T11:45:48;5.22;;;1.70;;
16101;SDS011;56411;52.964;10.540;2023-08-08T11:48:20;3.40;;;1.50;;
16101;SDS011;56411;52.964;10.540;2023-08-08T11:50:49;4.25;;;1.63;;
16101;SDS011;56411;52.964;10.540;2023-08-08T11:53:18;4.35;;;1.60;;
16101;SDS011;56411;52.964;10.540;2023-08-08T11:55:46;9.85;;;3.97;;
16101;SDS011;56411;52.964;10.540;2023-08-08T11:58:13;6.88;;;2.33;;
16101;SDS011;56411;52.964;10.540;2023-08-08T12:00:42;3.55;;;1.92;;
16101;SDS011;56411;52.964;10.540;2023-08-08T12:03:10;9.25;;;4.05;;
16101;SDS011;56411;52.964;10.540;2023-08-08T12:05:44;6.65;;;2.20;;
16101;SDS011;56411;52.964;10.540;2023-08-08T12:08:13;6.55;;;2.20;;
16101;SDS011;56411;52.964;10.540;2023-08-08T12:10:47;6.40;;;2.47;;
16101;SDS011;56411;52.964;10.540;2023-08-08T12:13:19;7.13;;;2.35;;
16101;SDS011;56411;52.964;10.540;2023-08-08T12:15:47;5.35;;;2.30;;
16101;SDS011;56411;52.964;10.540;2023-08-08T12:18:15;4.35;;;2.10;;
16101;SDS011;56411;52.964;10.540;2023-08-08T12:20:43;4.53;;;1.85;;
16101;SDS011;56411;52.964;10.540;2023-08-08T12:23:10;2.83;;;1.77;;
16101;SDS011;56411;52.964;10.540;2023-08-08T12:25:41;4.95;;;1.80;;
16101;SDS011;56411;52.964;10.540;2023-08-08T12:28:09;3.17;;;1.90;;
16101;SDS011;56411;52.964;10.540;2023-08-08T12:30:36;5.47;;;2.28;;
16101;SDS011;56411;52.964;10.540;2023-08-08T12:33:03;6.13;;;2.00;;
16101;SDS011;56411;52.964;10.540;2023-08-08T12:35:31;4.32;;;1.88;;
16101;SDS011;56411;52.964;10.540;2023-08-08T12:37:58;3.20;;;1.98;;
16101;SDS011;56411;52.964;10.540;2023-08-08T12:40:26;5.30;;;2.20;;
16101;SDS011;56411;52.964;10.540;2023-08-08T12:42:54;3.92;;;2.10;;
16101;SDS011;56411;52.964;10.540;2023-08-08T12:45:21;5.20;;;2.08;;
16101;SDS011;56411;52.964;10.540;2023-08-08T12:47:49;4.25;;;2.00;;
16101;SDS011;56411;52.964;10.540;2023-08-08T12:50:16;4.68;;;2.03;;
16101;SDS011;56411;52.964;10.540;2023-08-08T12:52:43;4.07;;;1.98;;
16101;SDS011;56411;52.964;10.540;2023-08-08T12:55:11;4.53;;;1.90;;
16101;SDS011;56411;52.964;10.540;2023-08-08T12:57:41;6.97;;;2.17;;
16101;SDS011;56411;52.964;10.540;2023-08-08T13:00:09;6.32;;;2.40;;
16101;SDS011;56411;52.964;10.540;2023-08-08T13:02:37;6.47;;;2.20;;
16101;SDS011;56411;52.964;10.540;2023-08-08T13:05:05;4.28;;;2.00;;
16101;SDS011;56411;52.964;10.540;2023-08-08T13:07:34;4.15;;;1.80;;
16101;SDS011;56411;52.964;10.540;2023-08-08T13:10:02;4.55;;;1.88;;
16101;SDS011;56411;52.964;10.540;2023-08-08T13:12:30;5.25;;;2.00;;
16101;SDS011;56411;52.964;10.540;2023-08-08T13:14:59;3.28;;;1.60;;
16101;SDS011;56411;52.964;10.540;2023-08-08T13:17:26;2.67;;;1.48;;
16101;SDS011;56411;52.964;10.540;2023-08-08T13:19:54;4.25;;;1.55;;
16101;SDS011;56411;52.964;10.540;2023-08-08T13:22:21;4.00;;;1.70;;
16101;SDS011;56411;52.964;10.540;2023-08-08T13:24:49;4.32;;;1.60;;
16101;SDS011;56411;52.964;10.540;2023-08-08T13:27:16;4.38;;;1.70;;
16101;SDS011;56411;52.964;10.540;2023-08-08T13:29:43;3.08;;;1.73;;
16101;SDS011;56411;52.964;10.540;2023-08-08T13:32:12;8.93;;;1.90;;
16101;SDS011;56411;52.964;10.540;2023-08-08T13:34:40;4.35;;;1.70;;
16101;SDS011;56411;52.964;10.540;2023-08-08T13:37:07;2.65;;;1.60;;
16101;SDS011;56411;52.964;10.540;2023-08-08T13:39:35;3.67;;;1.75;;
16101;SDS011;56411;52.964;10.540;2023-08-08T13:42:03;6.90;;;2.25;;
16101;SDS011;56411;52.964;10.540;2023-08-08T13:44:30;5.90;;;1.80;;
16101;SDS011;56411;52.964;10.540;2023-08-08T13:46:58;6.97;;;2.00;;
16101;SDS011;56411;52.964;10.540;2023-08-08T13:49:26;7.38;;;2.15;;
16101;SDS011;56411;52.964;10.540;2023-08-08T13:51:53;6.75;;;2.20;;
16101;SDS011;56411;52.964;10.540;2023-08-08T13:54:21;5.53;;;2.13;;
16101;SDS011;56411;52.964;10.540;2023-08-08T13:56:48;5.60;;;1.90;;
16101;SDS011;56411;52.964;10.540;2023-08-08T13:59:15;5.97;;;2.40;;
16101;SDS011;56411;52.964;10.540;2023-08-08T14:01:43;3.70;;;1.92;;
16101;SDS011;56411;52.964;10.540;2023-08-08T14:04:10;7.35;;;2.30;;
16101;SDS011;56411;52.964;10.540;2023-08-08T14:06:39;4.60;;;2.00;;
16101;SDS011;56411;52.964;10.540;2023-08-08T14:09:06;4.88;;;2.10;;
16101;SDS011;56411;52.964;10.540;2023-08-08T14:11:33;3.67;;;1.90;;
16101;SDS011;56411;52.964;10.540;2023-08-08T14:14:00;5.68;;;1.90;;
16101;SDS011;56411;52.964;10.540;2023-08-08T14:16:28;3.85;;;1.52;;
16101;SDS011;56411;52.964;10.540;2023-08-08T14:18:55;7.05;;;2.10;;
16101;SDS011;56411;52.964;10.540;2023-08-08T14:21:22;4.07;;;1.73;;
16101;SDS011;56411;52.964;10.540;2023-08-08T14:23:51;6.70;;;2.00;;
16101;SDS011;56411;52.964;10.540;2023-08-08T14:26:19;6.03;;;2.05;;
16101;SDS011;56411;52.964;10.540;2023-08-08T14:28:46;4.07;;;1.85;;
16101;SDS011;56411;52.964;10.540;2023-08-08T14:31:13;3.70;;;1.80;;
16101;SDS011;56411;52.964;10.540;2023-08-08T14:33:42;4.90;;;2.00;;
16101;SDS011;56411;52.964;10.540;2023-08-08T14:36:16;7.60;;;2.30;;
16101;SDS011;56411;52.964;10.540;2023-08-08T14:39:08;7.28;;;2.40;;
16101;SDS011;56411;52.964;10.540;2023-08-08T14:42:18;4.50;;;2.17;;
16101;SDS011;56411;52.964;10.540;2023-08-08T14:44:47;3.65;;;1.80;;
16101;SDS011;56411;52.964;10.540;2023-08-08T14:47:23;5.25;;;2.08;;
16101;SDS011;56411;52.964;10.540;2023-08-08T14:50:10;4.57;;;1.80;;
16101;SDS011;56411;52.964;10.540;2023-08-08T14:52:45;4.18;;;1.80;;
16101;SDS011;56411;52.964;10.540;2023-08-08T14:58:46;6.95;;;1.85;;
16101;SDS011;56411;52.964;10.540;2023-08-08T15:01:33;6.47;;;1.77;;
16101;SDS011;56411;52.964;10.540;2023-08-08T15:04:21;5.57;;;2.00;;
16101;SDS011;56411;52.964;10.540;2023-08-08T15:07:29;3.72;;;1.70;;
16101;SDS011;56411;52.964;10.540;2023-08-08T15:13:25;5.10;;;2.00;;
16101;SDS011;56411;52.964;10.540;2023-08-08T15:16:06;3.85;;;1.83;;
16101;SDS011;56411;52.964;10.540;2023-08-08T15:18:41;4.78;;;1.58;;